sensor_id;sensor_type;location;lat;lon;timestamp;temperature;humidity
39847;DHT22;25517;52.422;10.782;2023-04-09T00:00:15;6.20;99.90
39847;DHT22;25517;52.422;10.782;2023-04-09T00:02:41;6.30;99.90
39847;DHT22;25517;52.422;10.782;2023-04-09T00:05:07;6.30;99.90
39847;DHT22;25517;52.422;10.782;2023-04-09T00:07:32;6.20;99.90
39847;DHT22;25517;52.422;10.782;2023-04-09T00:09:58;6.30;99.90
39847;DHT22;25517;52.422;10.782;2023-04-09T00:12:23;6.20;99.90
39847;DHT22;25517;52.422;10.782;2023-04-09T00:14:49;6.20;99.90
39847;DHT22;25517;52.422;10.782;2023-04-09T00:17:14;6.20;99.90
39847;DHT22;25517;52.422;10.782;2023-04-09T00:19:40;6.20;99.90
39847;DHT22;25517;52.422;10.782;2023-04-09T00:22:06;6.20;99.90
39847;DHT22;25517;52.422;10.782;2023-04-09T00:24:31;6.20;99.90
39847;DHT22;25517;52.422;10.782;2023-04-09T00:26:57;6.20;99.90
39847;DHT22;25517;52.422;10.782;2023-04-09T00:29:22;6.20;99.90
39847;DHT22;25517;52.422;10.782;2023-04-09T00:31:48;6.20;99.90
39847;DHT22;25517;52.422;10.782;2023-04-09T00:34:13;6.20;99.90
39847;DHT22;25517;52.422;10.782;2023-04-09T00:36:39;6.20;99.90
39847;DHT22;25517;52.422;10.782;2023-04-09T00:39:04;6.10;99.90
39847;DHT22;25517;52.422;10.782;2023-04-09T00:41:30;6.10;99.90
39847;DHT22;25517;52.422;10.782;2023-04-09T00:43:55;6.10;99.90
39847;DHT22;25517;52.422;10.782;2023-04-09T00:46:21;6.10;99.90
39847;DHT22;25517;52.422;10.782;2023-04-09T00:48:47;6.10;99.90
39847;DHT22;25517;52.422;10.782;2023-04-09T00:51:13;6.00;99.90
39847;DHT22;25517;52.422;10.782;2023-04-09T00:53:38;6.00;99.90
39847;DHT22;25517;52.422;10.782;2023-04-09T00:56:04;6.00;99.90
39847;DHT22;25517;52.422;10.782;2023-04-09T00:58:31;6.00;99.90
39847;DHT22;25517;52.422;10.782;2023-04-09T01:00:56;5.90;99.90
39847;DHT22;25517;52.422;10.782;2023-04-09T01:03:22;5.90;99.90
39847;DHT22;25517;52.422;10.782;2023-04-09T01:06:09;5.90;99.90
39847;DHT22;25517;52.422;10.782;2023-04-09T01:11:44;5.80;99.90
39847;DHT22;25517;52.422;10.782;2023-04-09T01:14:24;5.70;99.90
39847;DHT22;25517;52.422;10.782;2023-04-09T01:17:18;5.70;99.90
39847;DHT22;25517;52.422;10.782;2023-04-09T01:28:31;5.50;99.90
39847;DHT22;25517;52.422;10.782;2023-04-09T01:31:03;5.50;99.90
39847;DHT22;25517;52.422;10.782;2023-04-09T01:33:30;5.50;99.90
39847;DHT22;25517;52.422;10.782;2023-04-09T01:35:56;5.50;99.90
39847;DHT22;25517;52.422;10.782;2023-04-09T01:38:23;5.50;99.90
39847;DHT22;25517;52.422;10.782;2023-04-09T01:40:50;5.40;99.90
39847;DHT22;25517;52.422;10.782;2023-04-09T01:43:16;5.50;99.90
39847;DHT22;25517;52.422;10.782;2023-04-09T01:45:43;5.40;99.90
39847;DHT22;25517;52.422;10.782;2023-04-09T01:48:11;5.40;99.90
39847;DHT22;25517;52.422;10.782;2023-04-09T01:50:37;5.40;99.90
39847;DHT22;25517;52.422;10.782;2023-04-09T01:53:04;5.40;99.90
39847;DHT22;25517;52.422;10.782;2023-04-09T01:55:30;5.40;99.90
39847;DHT22;25517;52.422;10.782;2023-04-09T01:57:55;5.40;99.90
39847;DHT22;25517;52.422;10.782;2023-04-09T02:00:21;5.30;99.90
39847;DHT22;25517;52.422;10.782;2023-04-09T02:03:04;5.40;99.90
39847;DHT22;25517;52.422;10.782;2023-04-09T02:05:36;5.40;99.90
39847;DHT22;25517;52.422;10.782;2023-04-09T02:08:04;5.30;99.90
39847;DHT22;25517;52.422;10.782;2023-04-09T02:10:34;5.30;99.90
39847;DHT22;25517;52.422;10.782;2023-04-09T02:13:00;5.40;99.90
39847;DHT22;25517;52.422;10.782;2023-04-09T02:15:31;5.30;99.90
39847;DHT22;25517;52.422;10.782;2023-04-09T02:17:58;5.20;99.90
39847;DHT22;25517;52.422;10.782;2023-04-09T02:20:24;5.30;99.90
39847;DHT22;25517;52.422;10.782;2023-04-09T02:22:49;5.30;99.90
39847;DHT22;25517;52.422;10.782;2023-04-09T02:25:15;5.30;99.90
39847;DHT22;25517;52.422;10.782;2023-04-09T02:27:46;5.30;99.90
39847;DHT22;25517;52.422;10.782;2023-04-09T02:30:12;5.30;99.90
39847;DHT22;25517;52.422;10.782;2023-04-09T02:32:37;5.20;99.90
39847;DHT22;25517;52.422;10.782;2023-04-09T02:35:03;5.20;99.90
39847;DHT22;25517;52.422;10.782;2023-04-09T02:37:29;5.30;99.90
39847;DHT22;25517;52.422;10.782;2023-04-09T02:39:55;5.30;99.90
39847;DHT22;25517;52.422;10.782;2023-04-09T02:42:20;5.30;99.90
39847;DHT22;25517;52.422;10.782;2023-04-09T02:44:46;5.30;99.90
39847;DHT22;25517;52.422;10.782;2023-04-09T02:47:11;5.30;99.90
39847;DHT22;25517;52.422;10.782;2023-04-09T02:49:37;5.20;99.90
39847;DHT22;25517;52.422;10.782;2023-04-09T02:52:02;5.20;99.90
39847;DHT22;25517;52.422;10.782;2023-04-09T02:54:28;5.20;99.90
39847;DHT22;25517;52.422;10.782;2023-04-09T02:56:53;5.20;99.90
39847;DHT22;25517;52.422;10.782;2023-04-09T02:59:19;5.20;99.90
39847;DHT22;25517;52.422;10.782;2023-04-09T03:01:44;5.20;99.90
39847;DHT22;25517;52.422;10.782;2023-04-09T03:04:10;5.30;99.90
39847;DHT22;25517;52.422;10.782;2023-04-09T03:06:35;5.20;99.90
39847;DHT22;25517;52.422;10.782;2023-04-09T03:09:01;5.30;99.90
39847;DHT22;25517;52.422;10.782;2023-04-09T03:11:26;5.30;99.90
39847;DHT22;25517;52.422;10.782;2023-04-09T03:13:52;5.30;99.90
39847;DHT22;25517;52.422;10.782;2023-04-09T03:16:18;5.30;99.90
39847;DHT22;25517;52.422;10.782;2023-04-09T03:18:43;5.30;99.90
39847;DHT22;25517;52.422;10.782;2023-04-09T03:21:09;5.30;99.90
39847;DHT22;25517;52.422;10.782;2023-04-09T03:23:35;5.30;99.90
39847;DHT22;25517;52.422;10.782;2023-04-09T03:26:02;5.30;99.90
39847;DHT22;25517;52.422;10.782;2023-04-09T03:28:28;5.30;99.90
39847;DHT22;25517;52.422;10.782;2023-04-09T03:30:54;5.30;99.90
39847;DHT22;25517;52.422;10.782;2023-04-09T03:33:19;5.40;99.90
39847;DHT22;25517;52.422;10.782;2023-04-09T03:35:45;5.40;99.90
39847;DHT22;25517;52.422;10.782;2023-04-09T03:38:10;5.40;99.90
39847;DHT22;25517;52.422;10.782;2023-04-09T03:40:36;5.40;99.90
39847;DHT22;25517;52.422;10.782;2023-04-09T03:43:01;5.40;99.90
39847;DHT22;25517;52.422;10.782;2023-04-09T03:45:28;5.40;99.90
39847;DHT22;25517;52.422;10.782;2023-04-09T03:47:54;5.40;99.90
39847;DHT22;25517;52.422;10.782;2023-04-09T03:50:19;5.40;99.90
39847;DHT22;25517;52.422;10.782;2023-04-09T03:52:45;5.40;99.90
39847;DHT22;25517;52.422;10.782;2023-04-09T03:55:10;5.40;99.90
39847;DHT22;25517;52.422;10.782;2023-04-09T03:57:36;5.40;99.90
39847;DHT22;25517;52.422;10.782;2023-04-09T04:00:01;5.40;99.90
39847;DHT22;25517;52.422;10.782;2023-04-09T04:02:28;5.50;99.90
39847;DHT22;25517;52.422;10.782;2023-04-09T04:04:58;5.50;99.90
39847;DHT22;25517;52.422;10.782;2023-04-09T04:07:23;5.50;99.90
39847;DHT22;25517;52.422;10.782;2023-04-09T04:09:49;5.60;99.90
39847;DHT22;25517;52.422;10.782;2023-04-09T04:12:14;5.50;99.90
39847;DHT22;25517;52.422;10.782;2023-04-09T04:14:40;5.60;99.90
39847;DHT22;25517;52.422;10.782;2023-04-09T04:17:05;5.60;99.90
39847;DHT22;25517;52.422;10.782;2023-04-09T04:19:31;5.60;99.90
39847;DHT22;25517;52.422;10.782;2023-04-09T04:21:56;5.70;99.90
39847;DHT22;25517;52.422;10.782;2023-04-09T04:24:22;5.70;99.90
39847;DHT22;25517;52.422;10.782;2023-04-09T04:26:47;5.70;99.90
39847;DHT22;25517;52.422;10.782;2023-04-09T04:29:13;5.70;99.90
39847;DHT22;25517;52.422;10.782;2023-04-09T04:31:38;5.70;99.90
39847;DHT22;25517;52.422;10.782;2023-04-09T04:34:04;5.80;99.90
39847;DHT22;25517;52.422;10.782;2023-04-09T04:36:29;5.80;99.90
39847;DHT22;25517;52.422;10.782;2023-04-09T04:38:55;5.80;99.90
39847;DHT22;25517;52.422;10.782;2023-04-09T04:41:20;5.80;99.90
39847;DHT22;25517;52.422;10.782;2023-04-09T04:43:46;5.80;99.90
39847;DHT22;25517;52.422;10.782;2023-04-09T04:46:12;5.80;99.90
39847;DHT22;25517;52.422;10.782;2023-04-09T04:48:37;5.80;99.90
39847;DHT22;25517;52.422;10.782;2023-04-09T04:51:03;5.90;99.90
39847;DHT22;25517;52.422;10.782;2023-04-09T04:53:29;5.80;99.90
39847;DHT22;25517;52.422;10.782;2023-04-09T04:55:54;5.90;99.90
39847;DHT22;25517;52.422;10.782;2023-04-09T04:58:20;5.90;99.90
39847;DHT22;25517;52.422;10.782;2023-04-09T05:00:45;5.90;99.90
39847;DHT22;25517;52.422;10.782;2023-04-09T05:03:11;6.00;99.90
39847;DHT22;25517;52.422;10.782;2023-04-09T05:05:37;6.00;99.90
39847;DHT22;25517;52.422;10.782;2023-04-09T05:08:03;6.00;99.90
39847;DHT22;25517;52.422;10.782;2023-04-09T05:10:28;6.00;99.90
39847;DHT22;25517;52.422;10.782;2023-04-09T05:12:54;6.10;99.90
39847;DHT22;25517;52.422;10.782;2023-04-09T05:15:20;6.10;99.90
39847;DHT22;25517;52.422;10.782;2023-04-09T05:17:45;6.10;99.90
39847;DHT22;25517;52.422;10.782;2023-04-09T05:20:11;6.10;99.90
39847;DHT22;25517;52.422;10.782;2023-04-09T05:22:36;6.10;99.90
39847;DHT22;25517;52.422;10.782;2023-04-09T05:25:02;6.10;99.90
39847;DHT22;25517;52.422;10.782;2023-04-09T05:27:28;6.20;99.90
39847;DHT22;25517;52.422;10.782;2023-04-09T05:29:54;6.20;99.90
39847;DHT22;25517;52.422;10.782;2023-04-09T05:32:20;6.20;99.90
39847;DHT22;25517;52.422;10.782;2023-04-09T05:34:45;6.20;99.90
39847;DHT22;25517;52.422;10.782;2023-04-09T05:37:11;6.20;99.90
39847;DHT22;25517;52.422;10.782;2023-04-09T05:39:37;6.30;99.90
39847;DHT22;25517;52.422;10.782;2023-04-09T05:42:02;6.30;99.90
39847;DHT22;25517;52.422;10.782;2023-04-09T05:44:28;6.30;99.90
39847;DHT22;25517;52.422;10.782;2023-04-09T05:46:54;6.30;99.90
39847;DHT22;25517;52.422;10.782;2023-04-09T05:49:19;6.40;99.90
39847;DHT22;25517;52.422;10.782;2023-04-09T05:51:45;6.40;99.90
39847;DHT22;25517;52.422;10.782;2023-04-09T05:54:10;6.40;99.90
39847;DHT22;25517;52.422;10.782;2023-04-09T05:56:36;6.40;99.90
39847;DHT22;25517;52.422;10.782;2023-04-09T05:59:01;6.50;99.90
39847;DHT22;25517;52.422;10.782;2023-04-09T06:01:27;6.50;99.90
39847;DHT22;25517;52.422;10.782;2023-04-09T06:03:54;6.60;99.90
39847;DHT22;25517;52.422;10.782;2023-04-09T06:06:19;6.70;99.90
39847;DHT22;25517;52.422;10.782;2023-04-09T06:08:45;6.70;99.90
39847;DHT22;25517;52.422;10.782;2023-04-09T06:11:10;6.70;99.90
39847;DHT22;25517;52.422;10.782;2023-04-09T06:13:36;6.70;99.90
39847;DHT22;25517;52.422;10.782;2023-04-09T06:16:06;6.70;99.90
39847;DHT22;25517;52.422;10.782;2023-04-09T06:18:32;6.70;99.90
39847;DHT22;25517;52.422;10.782;2023-04-09T06:21:05;6.70;99.90
39847;DHT22;25517;52.422;10.782;2023-04-09T06:23:32;6.80;99.90
39847;DHT22;25517;52.422;10.782;2023-04-09T06:25:57;6.70;99.90
39847;DHT22;25517;52.422;10.782;2023-04-09T06:28:23;6.80;99.90
39847;DHT22;25517;52.422;10.782;2023-04-09T06:30:49;6.80;99.90
39847;DHT22;25517;52.422;10.782;2023-04-09T06:33:14;6.80;99.90
39847;DHT22;25517;52.422;10.782;2023-04-09T06:35:41;6.80;99.90
39847;DHT22;25517;52.422;10.782;2023-04-09T06:38:06;6.80;99.90
39847;DHT22;25517;52.422;10.782;2023-04-09T06:40:37;6.80;99.90
39847;DHT22;25517;52.422;10.782;2023-04-09T06:43:03;6.80;99.90
39847;DHT22;25517;52.422;10.782;2023-04-09T06:45:30;6.90;99.90
39847;DHT22;25517;52.422;10.782;2023-04-09T06:47:55;6.90;99.90
39847;DHT22;25517;52.422;10.782;2023-04-09T06:50:21;7.00;99.90
39847;DHT22;25517;52.422;10.782;2023-04-09T06:52:47;6.90;99.90
39847;DHT22;25517;52.422;10.782;2023-04-09T06:55:12;6.90;99.90
39847;DHT22;25517;52.422;10.782;2023-04-09T06:57:38;6.90;99.90
39847;DHT22;25517;52.422;10.782;2023-04-09T07:00:04;6.90;99.90
39847;DHT22;25517;52.422;10.782;2023-04-09T07:02:30;7.00;99.90
39847;DHT22;25517;52.422;10.782;2023-04-09T07:04:55;7.10;99.90
39847;DHT22;25517;52.422;10.782;2023-04-09T07:07:21;7.00;99.90
39847;DHT22;25517;52.422;10.782;2023-04-09T07:09:51;7.10;99.90
39847;DHT22;25517;52.422;10.782;2023-04-09T07:12:30;7.00;99.90
39847;DHT22;25517;52.422;10.782;2023-04-09T07:15:00;7.00;99.90
39847;DHT22;25517;52.422;10.782;2023-04-09T07:17:27;7.00;99.90
39847;DHT22;25517;52.422;10.782;2023-04-09T07:19:52;7.10;99.90
39847;DHT22;25517;52.422;10.782;2023-04-09T07:22:20;7.10;99.90
39847;DHT22;25517;52.422;10.782;2023-04-09T07:24:46;7.20;99.90
39847;DHT22;25517;52.422;10.782;2023-04-09T07:27:26;7.10;99.90
39847;DHT22;25517;52.422;10.782;2023-04-09T07:29:56;7.10;99.90
39847;DHT22;25517;52.422;10.782;2023-04-09T07:32:22;7.00;99.90
39847;DHT22;25517;52.422;10.782;2023-04-09T07:34:51;7.00;99.90
39847;DHT22;25517;52.422;10.782;2023-04-09T07:37:17;7.00;99.90
39847;DHT22;25517;52.422;10.782;2023-04-09T07:39:43;7.00;99.90
39847;DHT22;25517;52.422;10.782;2023-04-09T07:42:08;7.00;99.90
39847;DHT22;25517;52.422;10.782;2023-04-09T07:44:35;7.10;99.90
39847;DHT22;25517;52.422;10.782;2023-04-09T07:47:05;7.20;99.90
39847;DHT22;25517;52.422;10.782;2023-04-09T07:49:31;7.10;99.90
39847;DHT22;25517;52.422;10.782;2023-04-09T07:51:58;7.10;99.90
39847;DHT22;25517;52.422;10.782;2023-04-09T07:54:24;7.10;99.90
39847;DHT22;25517;52.422;10.782;2023-04-09T07:56:50;7.10;99.90
39847;DHT22;25517;52.422;10.782;2023-04-09T07:59:15;7.10;99.90
39847;DHT22;25517;52.422;10.782;2023-04-09T08:01:41;7.10;99.90
39847;DHT22;25517;52.422;10.782;2023-04-09T08:04:08;7.20;99.90
39847;DHT22;25517;52.422;10.782;2023-04-09T08:06:33;7.20;99.90
39847;DHT22;25517;52.422;10.782;2023-04-09T08:09:00;7.20;99.90
39847;DHT22;25517;52.422;10.782;2023-04-09T08:11:25;7.20;99.90
39847;DHT22;25517;52.422;10.782;2023-04-09T08:13:51;7.20;99.90
39847;DHT22;25517;52.422;10.782;2023-04-09T08:16:17;7.20;99.90
39847;DHT22;25517;52.422;10.782;2023-04-09T08:18:43;7.30;99.90
39847;DHT22;25517;52.422;10.782;2023-04-09T08:21:08;7.30;99.90
39847;DHT22;25517;52.422;10.782;2023-04-09T08:23:34;7.30;99.90
39847;DHT22;25517;52.422;10.782;2023-04-09T08:26:00;7.50;99.90
39847;DHT22;25517;52.422;10.782;2023-04-09T08:28:25;7.30;99.90
39847;DHT22;25517;52.422;10.782;2023-04-09T08:30:51;7.10;99.90
39847;DHT22;25517;52.422;10.782;2023-04-09T08:33:17;7.30;99.90
39847;DHT22;25517;52.422;10.782;2023-04-09T08:35:42;7.40;99.90
39847;DHT22;25517;52.422;10.782;2023-04-09T08:38:08;7.50;99.90
39847;DHT22;25517;52.422;10.782;2023-04-09T08:40:37;7.50;99.90
39847;DHT22;25517;52.422;10.782;2023-04-09T08:43:06;7.50;99.90
39847;DHT22;25517;52.422;10.782;2023-04-09T08:45:33;7.60;99.90
39847;DHT22;25517;52.422;10.782;2023-04-09T08:48:01;7.50;99.90
39847;DHT22;25517;52.422;10.782;2023-04-09T08:50:29;7.60;99.90
39847;DHT22;25517;52.422;10.782;2023-04-09T08:52:56;7.80;99.90
39847;DHT22;25517;52.422;10.782;2023-04-09T08:55:22;7.90;99.90
39847;DHT22;25517;52.422;10.782;2023-04-09T08:57:48;7.90;99.90
39847;DHT22;25517;52.422;10.782;2023-04-09T09:00:13;8.00;99.90
39847;DHT22;25517;52.422;10.782;2023-04-09T09:05:44;8.20;99.90
39847;DHT22;25517;52.422;10.782;2023-04-09T09:08:30;8.20;99.90
39847;DHT22;25517;52.422;10.782;2023-04-09T09:10:56;8.20;99.90
39847;DHT22;25517;52.422;10.782;2023-04-09T09:15:53;8.50;99.90
39847;DHT22;25517;52.422;10.782;2023-04-09T09:18:42;8.50;99.90
39847;DHT22;25517;52.422;10.782;2023-04-09T09:21:13;8.50;99.90
39847;DHT22;25517;52.422;10.782;2023-04-09T09:23:39;8.50;99.90
39847;DHT22;25517;52.422;10.782;2023-04-09T09:26:19;8.30;99.90
39847;DHT22;25517;52.422;10.782;2023-04-09T09:28:46;8.50;99.90
39847;DHT22;25517;52.422;10.782;2023-04-09T09:31:13;8.60;99.90
39847;DHT22;25517;52.422;10.782;2023-04-09T09:33:39;8.60;99.90
39847;DHT22;25517;52.422;10.782;2023-04-09T09:36:04;8.70;99.90
39847;DHT22;25517;52.422;10.782;2023-04-09T09:38:30;8.70;99.90
39847;DHT22;25517;52.422;10.782;2023-04-09T09:40:57;8.90;99.90
39847;DHT22;25517;52.422;10.782;2023-04-09T09:43:23;9.00;99.90
39847;DHT22;25517;52.422;10.782;2023-04-09T09:45:49;9.00;99.90
39847;DHT22;25517;52.422;10.782;2023-04-09T09:48:15;9.00;99.90
39847;DHT22;25517;52.422;10.782;2023-04-09T09:50:41;9.20;99.90
39847;DHT22;25517;52.422;10.782;2023-04-09T09:53:09;9.30;99.90
39847;DHT22;25517;52.422;10.782;2023-04-09T09:55:40;9.30;99.90
39847;DHT22;25517;52.422;10.782;2023-04-09T09:58:35;9.30;99.90
39847;DHT22;25517;52.422;10.782;2023-04-09T10:01:07;9.20;99.90
39847;DHT22;25517;52.422;10.782;2023-04-09T10:03:35;8.70;99.90
39847;DHT22;25517;52.422;10.782;2023-04-09T10:06:04;8.80;99.90
39847;DHT22;25517;52.422;10.782;2023-04-09T10:08:30;9.00;99.90
39847;DHT22;25517;52.422;10.782;2023-04-09T10:10:59;9.00;99.90
39847;DHT22;25517;52.422;10.782;2023-04-09T10:13:38;9.30;99.90
39847;DHT22;25517;52.422;10.782;2023-04-09T10:16:05;9.80;99.90
39847;DHT22;25517;52.422;10.782;2023-04-09T10:18:32;10.30;99.90
39847;DHT22;25517;52.422;10.782;2023-04-09T10:21:06;10.80;99.90
39847;DHT22;25517;52.422;10.782;2023-04-09T10:23:38;11.30;99.90
39847;DHT22;25517;52.422;10.782;2023-04-09T10:26:05;12.30;99.90
39847;DHT22;25517;52.422;10.782;2023-04-09T10:28:30;12.20;99.90
39847;DHT22;25517;52.422;10.782;2023-04-09T10:30:56;12.30;99.90
39847;DHT22;25517;52.422;10.782;2023-04-09T10:33:24;12.20;99.90
39847;DHT22;25517;52.422;10.782;2023-04-09T10:35:55;12.30;99.90
39847;DHT22;25517;52.422;10.782;2023-04-09T10:38:37;12.60;99.90
39847;DHT22;25517;52.422;10.782;2023-04-09T10:41:21;13.80;99.90
39847;DHT22;25517;52.422;10.782;2023-04-09T10:43:49;13.60;99.90
39847;DHT22;25517;52.422;10.782;2023-04-09T10:46:44;13.40;99.90
39847;DHT22;25517;52.422;10.782;2023-04-09T10:49:17;13.50;99.90
39847;DHT22;25517;52.422;10.782;2023-04-09T10:52:02;14.10;99.90
39847;DHT22;25517;52.422;10.782;2023-04-09T10:57:23;16.30;98.70
39847;DHT22;25517;52.422;10.782;2023-04-09T10:59:52;18.20;95.00
39847;DHT22;25517;52.422;10.782;2023-04-09T11:05:18;20.40;82.30
39847;DHT22;25517;52.422;10.782;2023-04-09T11:07:48;20.60;81.20
39847;DHT22;25517;52.422;10.782;2023-04-09T11:10:16;20.90;78.00
39847;DHT22;25517;52.422;10.782;2023-04-09T11:12:41;21.00;74.50
39847;DHT22;25517;52.422;10.782;2023-04-09T11:15:15;21.30;77.80
39847;DHT22;25517;52.422;10.782;2023-04-09T11:17:41;21.90;73.40
39847;DHT22;25517;52.422;10.782;2023-04-09T11:20:09;23.50;68.30
39847;DHT22;25517;52.422;10.782;2023-04-09T11:22:35;24.40;66.40
39847;DHT22;25517;52.422;10.782;2023-04-09T11:25:00;24.60;64.30
39847;DHT22;25517;52.422;10.782;2023-04-09T11:27:26;23.60;64.00
39847;DHT22;25517;52.422;10.782;2023-04-09T11:29:55;23.20;65.00
39847;DHT22;25517;52.422;10.782;2023-04-09T11:32:20;23.30;63.50
39847;DHT22;25517;52.422;10.782;2023-04-09T11:34:46;23.70;62.20
39847;DHT22;25517;52.422;10.782;2023-04-09T11:37:15;23.30;60.90
39847;DHT22;25517;52.422;10.782;2023-04-09T11:39:44;22.70;65.40
39847;DHT22;25517;52.422;10.782;2023-04-09T11:42:14;22.40;63.90
39847;DHT22;25517;52.422;10.782;2023-04-09T11:44:40;22.90;65.30
39847;DHT22;25517;52.422;10.782;2023-04-09T11:47:07;23.30;61.50
39847;DHT22;25517;52.422;10.782;2023-04-09T11:49:33;22.50;63.70
39847;DHT22;25517;52.422;10.782;2023-04-09T11:51:59;20.90;64.10
39847;DHT22;25517;52.422;10.782;2023-04-09T11:54:31;20.90;66.20
39847;DHT22;25517;52.422;10.782;2023-04-09T11:56:58;21.30;66.50
39847;DHT22;25517;52.422;10.782;2023-04-09T11:59:24;21.20;67.30
39847;DHT22;25517;52.422;10.782;2023-04-09T12:01:50;20.50;68.60
39847;DHT22;25517;52.422;10.782;2023-04-09T12:04:22;20.50;66.60
39847;DHT22;25517;52.422;10.782;2023-04-09T12:06:47;19.40;65.90
39847;DHT22;25517;52.422;10.782;2023-04-09T12:09:13;18.10;70.10
39847;DHT22;25517;52.422;10.782;2023-04-09T12:11:42;17.90;71.30
39847;DHT22;25517;52.422;10.782;2023-04-09T12:14:15;17.00;75.70
39847;DHT22;25517;52.422;10.782;2023-04-09T12:16:41;16.30;77.70
39847;DHT22;25517;52.422;10.782;2023-04-09T12:19:11;16.60;79.00
39847;DHT22;25517;52.422;10.782;2023-04-09T12:21:54;17.10;81.00
39847;DHT22;25517;52.422;10.782;2023-04-09T12:24:22;16.90;80.20
39847;DHT22;25517;52.422;10.782;2023-04-09T12:26:48;16.80;79.20
39847;DHT22;25517;52.422;10.782;2023-04-09T12:29:15;16.80;79.40
39847;DHT22;25517;52.422;10.782;2023-04-09T12:31:41;16.90;79.00
39847;DHT22;25517;52.422;10.782;2023-04-09T12:34:07;17.40;78.00
39847;DHT22;25517;52.422;10.782;2023-04-09T12:36:33;17.60;76.60
39847;DHT22;25517;52.422;10.782;2023-04-09T12:38:59;17.40;76.90
39847;DHT22;25517;52.422;10.782;2023-04-09T12:41:25;17.50;74.80
39847;DHT22;25517;52.422;10.782;2023-04-09T12:43:50;17.10;76.00
39847;DHT22;25517;52.422;10.782;2023-04-09T12:46:17;16.70;77.70
39847;DHT22;25517;52.422;10.782;2023-04-09T12:48:43;16.40;79.70
39847;DHT22;25517;52.422;10.782;2023-04-09T12:51:10;16.20;80.00
39847;DHT22;25517;52.422;10.782;2023-04-09T12:53:36;16.10;83.30
39847;DHT22;25517;52.422;10.782;2023-04-09T12:56:02;16.20;81.80
39847;DHT22;25517;52.422;10.782;2023-04-09T12:58:27;16.50;84.60
39847;DHT22;25517;52.422;10.782;2023-04-09T13:00:53;16.50;81.20
39847;DHT22;25517;52.422;10.782;2023-04-09T13:03:21;16.60;85.80
39847;DHT22;25517;52.422;10.782;2023-04-09T13:05:47;16.80;80.00
39847;DHT22;25517;52.422;10.782;2023-04-09T13:08:12;16.70;81.80
39847;DHT22;25517;52.422;10.782;2023-04-09T13:10:38;16.50;81.40
39847;DHT22;25517;52.422;10.782;2023-04-09T13:13:03;16.30;84.30
39847;DHT22;25517;52.422;10.782;2023-04-09T13:15:30;16.60;81.70
39847;DHT22;25517;52.422;10.782;2023-04-09T13:17:56;16.20;78.10
39847;DHT22;25517;52.422;10.782;2023-04-09T13:20:22;16.60;81.90
39847;DHT22;25517;52.422;10.782;2023-04-09T13:22:47;16.70;85.00
39847;DHT22;25517;52.422;10.782;2023-04-09T13:25:16;16.70;85.00
39847;DHT22;25517;52.422;10.782;2023-04-09T13:27:42;16.60;86.10
39847;DHT22;25517;52.422;10.782;2023-04-09T13:30:08;16.90;86.40
39847;DHT22;25517;52.422;10.782;2023-04-09T13:32:33;16.80;85.00
39847;DHT22;25517;52.422;10.782;2023-04-09T13:34:59;16.60;86.10
39847;DHT22;25517;52.422;10.782;2023-04-09T13:37:25;16.50;83.30
39847;DHT22;25517;52.422;10.782;2023-04-09T13:39:51;16.50;83.70
39847;DHT22;25517;52.422;10.782;2023-04-09T13:42:17;16.60;82.40
39847;DHT22;25517;52.422;10.782;2023-04-09T13:44:42;16.50;84.30
39847;DHT22;25517;52.422;10.782;2023-04-09T13:47:14;16.40;84.70
39847;DHT22;25517;52.422;10.782;2023-04-09T13:49:40;16.20;85.20
39847;DHT22;25517;52.422;10.782;2023-04-09T13:52:06;16.20;84.00
39847;DHT22;25517;52.422;10.782;2023-04-09T13:54:32;16.30;83.50
39847;DHT22;25517;52.422;10.782;2023-04-09T13:56:58;16.40;84.30
39847;DHT22;25517;52.422;10.782;2023-04-09T13:59:23;16.30;86.80
39847;DHT22;25517;52.422;10.782;2023-04-09T14:01:49;16.60;85.80
39847;DHT22;25517;52.422;10.782;2023-04-09T14:04:15;16.70;89.10
39847;DHT22;25517;52.422;10.782;2023-04-09T14:06:40;16.90;85.70
39847;DHT22;25517;52.422;10.782;2023-04-09T14:09:07;16.90;85.00
39847;DHT22;25517;52.422;10.782;2023-04-09T14:11:33;16.90;83.80
39847;DHT22;25517;52.422;10.782;2023-04-09T14:13:58;17.20;86.50
39847;DHT22;25517;52.422;10.782;2023-04-09T14:16:24;16.90;80.70
39847;DHT22;25517;52.422;10.782;2023-04-09T14:18:50;16.50;82.50
39847;DHT22;25517;52.422;10.782;2023-04-09T14:21:15;16.40;82.90
39847;DHT22;25517;52.422;10.782;2023-04-09T14:23:42;16.20;82.40
39847;DHT22;25517;52.422;10.782;2023-04-09T14:26:08;16.00;84.10
39847;DHT22;25517;52.422;10.782;2023-04-09T14:28:33;15.80;84.60
39847;DHT22;25517;52.422;10.782;2023-04-09T14:30:59;15.70;84.60
39847;DHT22;25517;52.422;10.782;2023-04-09T14:33:25;16.00;86.80
39847;DHT22;25517;52.422;10.782;2023-04-09T14:35:51;16.40;88.20
39847;DHT22;25517;52.422;10.782;2023-04-09T14:38:16;16.50;85.90
39847;DHT22;25517;52.422;10.782;2023-04-09T14:40:42;16.70;86.20
39847;DHT22;25517;52.422;10.782;2023-04-09T14:43:08;16.50;86.10
39847;DHT22;25517;52.422;10.782;2023-04-09T14:45:35;16.50;83.20
39847;DHT22;25517;52.422;10.782;2023-04-09T14:48:01;16.60;83.70
39847;DHT22;25517;52.422;10.782;2023-04-09T14:50:27;16.60;83.80
39847;DHT22;25517;52.422;10.782;2023-04-09T14:52:53;16.70;82.00
39847;DHT22;25517;52.422;10.782;2023-04-09T14:55:18;16.70;81.00
39847;DHT22;25517;52.422;10.782;2023-04-09T14:57:44;16.60;83.20
39847;DHT22;25517;52.422;10.782;2023-04-09T15:00:10;16.80;83.10
39847;DHT22;25517;52.422;10.782;2023-04-09T15:02:36;16.80;81.30
39847;DHT22;25517;52.422;10.782;2023-04-09T15:05:05;16.80;81.60
39847;DHT22;25517;52.422;10.782;2023-04-09T15:07:31;16.80;81.10
39847;DHT22;25517;52.422;10.782;2023-04-09T15:09:57;16.80;81.80
39847;DHT22;25517;52.422;10.782;2023-04-09T15:12:32;16.80;80.00
39847;DHT22;25517;52.422;10.782;2023-04-09T15:14:58;16.90;79.50
39847;DHT22;25517;52.422;10.782;2023-04-09T15:17:25;16.80;78.20
39847;DHT22;25517;52.422;10.782;2023-04-09T15:19:54;16.70;80.70
39847;DHT22;25517;52.422;10.782;2023-04-09T15:22:19;16.70;80.90
39847;DHT22;25517;52.422;10.782;2023-04-09T15:24:45;16.70;79.10
39847;DHT22;25517;52.422;10.782;2023-04-09T15:27:11;16.40;77.10
39847;DHT22;25517;52.422;10.782;2023-04-09T15:29:36;16.20;76.30
39847;DHT22;25517;52.422;10.782;2023-04-09T15:32:02;16.20;77.90
39847;DHT22;25517;52.422;10.782;2023-04-09T15:34:28;16.30;76.80
39847;DHT22;25517;52.422;10.782;2023-04-09T15:36:53;16.20;76.90
39847;DHT22;25517;52.422;10.782;2023-04-09T15:39:20;16.10;78.00
39847;DHT22;25517;52.422;10.782;2023-04-09T15:41:46;16.10;78.40
39847;DHT22;25517;52.422;10.782;2023-04-09T15:44:12;16.20;76.40
39847;DHT22;25517;52.422;10.782;2023-04-09T15:46:37;16.20;75.60